Independence, Kansas
Current Conditions -  °F | °C
As of 6:55 PM on Monday 24 Nov 2014 (Local Time) from KIDP Reporting Station
Clear Clear  
Wind Chill: 34°   Ceiling: Unl
Heat Index: 39°   Visibility: 10mi
Dew Point: 23°   Wind: 8mph
Humidity: 52%   Direction: 320°NW
Pressure: 30.04"   Gusts: NA
Location:  37.23°N, 95.71°W
Report Text: KIDP 250055Z AUTO 32007KT 10SM CLR 04/M05 A3004 RMK AO2
Loading
Personal Weather Stations






























Interactive Weather Map New forecast layout! Learn more

10-Day Weather Forecast

Advertisements
Track Severe Weather on mobile